Time;durP1;ratioP1;P1;durP2;ratioP2;P2;SDS_P1;SDS_P2;PMS_P1;PMS_P2;Temp;Humidity;BMP_temperature;BMP_pressure;BME280_temperature;BME280_humidity;BME280_pressure;Samples;Min_cycle;Max_cycle;Signal;HPM_P1;HPM_P2
2022/11/03 00:01:47;;;;;;;4.38;2.70;;;11.10;99.90;;;;;;5955666;24;20553;-86
2022/11/03 00:04:14;;;;;;;24.85;4.43;;;;;;;;;;5955524;24;20020;-88
2022/11/03 00:06:41;;;;;;;11.68;3.20;;;;;;;;;;5955429;24;20016;-83
2022/11/03 00:09:08;;;;;;;6.65;2.67;;;;;;;;;;5955678;24;20048;-85
2022/11/03 00:11:35;;;;;;;15.43;3.35;;;11.10;99.90;;;;;;5955566;24;20022;-85
2022/11/03 00:14:01;;;;;;;11.85;3.28;;;;;;;;;;5955811;24;20078;-87
2022/11/03 00:16:27;;;;;;;9.05;2.78;;;;;;;;;;5955801;24;20023;-84
2022/11/03 00:18:53;;;;;;;9.48;2.58;;;;;;;;;;5955773;24;20435;-86
2022/11/03 00:21:19;;;;;;;10.30;3.03;;;;;;;;;;5955890;24;20446;-87
2022/11/03 00:23:45;;;;;;;9.27;3.25;;;;;;;;;;5962928;23;20020;-83
2022/11/03 00:26:22;;;;;;;9.75;3.42;;;;;;;;;;6070365;23;20033;-83
2022/11/03 00:28:49;;;;;;;10.05;3.58;;;;;;;;;;6046344;23;20562;-84
2022/11/03 00:31:17;;;;;;;15.07;3.53;;;11.30;99.90;;;;;;6050292;23;20120;-94
2022/11/03 00:33:43;;;;;;;14.38;2.80;;;;;;;;;;6048474;23;20021;-84
2022/11/03 00:36:11;;;;;;;8.73;3.25;;;;;;;;;;6048022;23;20026;-84
2022/11/03 00:38:37;;;;;;;6.90;2.67;;;;;;;;;;6048121;23;20422;-85
2022/11/03 00:41:04;;;;;;;7.00;2.63;;;;;;;;;;6048259;23;20049;-85
2022/11/03 00:43:31;;;;;;;9.90;3.22;;;;;;;;;;6048354;23;20019;-86
2022/11/03 00:45:57;;;;;;;12.98;3.33;;;;;;;;;;6071914;23;20029;-94
2022/11/03 00:48:29;;;;;;;11.65;2.80;;;;;;;;;;6048299;23;20029;-82
2022/11/03 00:51:08;;;;;;;9.57;2.78;;;;;;;;;;6048390;23;20029;-85
2022/11/03 00:53:36;;;;;;;8.05;3.15;;;11.00;99.90;;;;;;6072032;23;20019;-90
2022/11/03 00:56:03;;;;;;;5.90;2.90;;;;;;;;;;6072117;23;20062;-86
2022/11/03 00:58:29;;;;;;;10.80;2.80;;;;;;;;;;6049153;23;20094;-88
2022/11/03 01:00:59;;;;;;;6.05;2.97;;;;;;;;;;6072387;23;20097;-91
2022/11/03 01:03:25;;;;;;;10.25;3.00;;;;;;;;;;6048178;23;20014;-92
2022/11/03 01:08:36;;;;;;;9.73;3.08;;;;;;;;;;6071429;23;20099;-85
2022/11/03 01:14:09;;;;;;;12.38;3.15;;;11.10;99.90;;;;;;6071838;23;20061;-87
2022/11/03 01:16:35;;;;;;;9.18;3.13;;;;;;;;;;6047689;23;20065;-87
2022/11/03 01:19:01;;;;;;;7.65;2.90;;;;;;;;;;6047770;23;20019;-88
2022/11/03 01:21:27;;;;;;;6.72;2.40;;;;;;;;;;6047803;23;20019;-88
2022/11/03 01:23:54;;;;;;;7.03;3.10;;;;;;;;;;6071385;23;20046;-84
2022/11/03 01:26:20;;;;;;;10.70;2.92;;;;;;;;;;6071346;23;20411;-89
2022/11/03 01:28:46;;;;;;;13.18;3.33;;;;;;;;;;6071538;23;20483;-87
2022/11/03 01:31:16;;;;;;;7.88;2.70;;;;;;;;;;6071404;23;20022;-87
2022/11/03 01:33:44;;;;;;;12.18;3.08;;;;;;;;;;6071436;23;20022;-85
2022/11/03 01:36:10;;;;;;;14.52;3.40;;;;;;;;;;6047274;23;20022;-83
2022/11/03 01:38:37;;;;;;;13.15;2.70;;;;;;;;;;6071057;23;20089;-86
2022/11/03 01:41:05;;;;;;;10.23;4.00;;;11.10;99.90;;;;;;6047167;23;20022;-83
2022/11/03 01:43:32;;;;;;;11.50;3.35;;;11.00;99.90;;;;;;6070838;23;20093;-86
2022/11/03 01:46:01;;;;;;;10.25;3.60;;;;;;;;;;6047104;23;20022;-84
2022/11/03 01:48:27;;;;;;;13.25;3.15;;;;;;;;;;6047369;23;20019;-84
2022/11/03 01:50:53;;;;;;;7.18;2.70;;;;;;;;;;6073701;23;20089;-84
2022/11/03 01:53:21;;;;;;;19.98;3.60;;;10.60;99.90;;;;;;6049774;23;20029;-83
2022/11/03 01:55:48;;;;;;;6.18;3.03;;;;;;;;;;6072407;23;20101;-84
2022/11/03 01:58:25;;;;;;;14.65;3.25;;;10.70;99.90;;;;;;6072787;23;20460;-89
2022/11/03 02:00:54;;;;;;;9.00;2.90;;;;;;;;;;6049369;23;20089;-86
2022/11/03 02:03:21;;;;;;;11.85;3.10;;;10.80;99.90;;;;;;6072568;23;20014;-88
2022/11/03 02:05:48;;;;;;;7.45;3.08;;;;;;;;;;6072438;23;20321;-83
2022/11/03 02:08:17;;;;;;;8.10;2.95;;;;;;;;;;6047038;23;20019;-83
2022/11/03 02:10:46;;;;;;;15.73;3.47;;;;;;;;;;6070793;23;20054;-82
2022/11/03 02:13:20;;;;;;;8.38;2.95;;;;;;;;;;6071005;23;20037;-85
2022/11/03 02:15:51;;;;;;;11.52;4.15;;;;;;;;;;6070875;23;20026;-85
2022/11/03 02:18:19;;;;;;;7.78;3.40;;;;;;;;;;6070823;23;20018;-82
2022/11/03 02:20:47;;;;;;;7.85;2.70;;;;;;;;;;6047123;23;20077;-86
2022/11/03 02:23:19;;;;;;;8.85;2.45;;;;;;;;;;6071001;23;20453;-86
2022/11/03 02:25:45;;;;;;;10.50;2.70;;;;;;;;;;6046595;23;20077;-86
2022/11/03 02:28:13;;;;;;;7.57;2.83;;;;;;;;;;6071707;23;20352;-84
2022/11/03 02:30:48;;;;;;;10.07;3.83;;;;;;;;;;6050287;23;20026;-82
2022/11/03 02:33:17;;;;;;;8.90;2.97;;;;;;;;;;6050098;23;20347;-82
2022/11/03 02:35:54;;;;;;;9.45;3.50;;;10.70;99.90;;;;;;6078233;23;20022;-83
2022/11/03 02:38:22;;;;;;;7.65;2.55;;;;;;;;;;6075382;23;20014;-82
2022/11/03 02:40:50;;;;;;;10.40;2.80;;;;;;;;;;6073321;23;20085;-91
2022/11/03 02:43:16;;;;;;;6.22;2.33;;;;;;;;;;6047760;23;20341;-83
2022/11/03 02:45:45;;;;;;;11.90;2.67;;;10.60;99.90;;;;;;6050102;23;20025;-87
2022/11/03 02:48:13;;;;;;;7.65;2.85;;;;;;;;;;6047100;23;20484;-88
2022/11/03 02:50:39;;;;;;;11.18;4.15;;;;;;;;;;6071603;23;20022;-88
2022/11/03 02:53:05;;;;;;;14.02;3.08;;;;;;;;;;6047427;23;20015;-88
2022/11/03 02:55:37;;;;;;;12.40;3.13;;;10.40;99.90;;;;;;6048460;23;20344;-86
2022/11/03 02:58:06;;;;;;;5.88;2.65;;;;;;;;;;6048626;23;20456;-87
2022/11/03 03:00:34;;;;;;;7.90;2.35;;;;;;;;;;6048623;23;20015;-89
2022/11/03 03:03:08;;;;;;;9.90;2.80;;;;;;;;;;6072595;23;20018;-87
2022/11/03 03:05:34;;;;;;;9.75;3.03;;;;;;;;;;6048250;23;20022;-91
2022/11/03 03:08:04;;;;;;;10.20;3.53;;;10.70;99.90;;;;;;6048706;23;20098;-89
2022/11/03 03:10:32;;;;;;;18.52;3.38;;;;;;;;;;6047498;23;20022;-85
2022/11/03 03:13:00;;;;;;;10.38;3.72;;;;;;;;;;6047909;23;20022;-83
2022/11/03 03:15:32;;;;;;;14.85;3.33;;;;;;;;;;6072075;23;20018;-88
2022/11/03 03:18:14;;;;;;;10.55;2.50;;;10.90;99.90;;;;;;6071983;23;20018;-90
2022/11/03 03:21:04;;;;;;;9.25;3.55;;;;;;;;;;6071189;23;20344;-89
2022/11/03 03:23:34;;;;;;;8.00;3.17;;;10.80;99.90;;;;;;6052130;23;20022;-92
2022/11/03 03:26:00;;;;;;;6.32;2.88;;;;;;;;;;6063547;23;20069;-94
2022/11/03 03:28:31;;;;;;;7.15;3.03;;;;;;;;;;6052926;23;20014;-94
2022/11/03 03:31:00;;;;;;;16.80;3.13;;;10.80;99.90;;;;;;6073676;23;20018;-96
2022/11/03 03:33:27;;;;;;;11.38;3.05;;;;;;;;;;6048348;23;20480;-95
2022/11/03 03:35:54;;;;;;;9.27;2.78;;;;;;;;;;6048922;23;20014;-94
2022/11/03 03:38:24;;;;;;;11.43;2.90;;;10.80;99.90;;;;;;6048211;23;20022;-95
2022/11/03 03:40:53;;;;;;;11.65;2.95;;;10.70;99.90;;;;;;6071947;23;20025;-96
2022/11/03 03:43:22;;;;;;;15.90;3.88;;;10.80;99.90;;;;;;6048041;23;20030;-96
2022/11/03 03:45:50;;;;;;;14.35;3.38;;;10.80;99.90;;;;;;6074471;23;20141;-96
2022/11/03 03:48:17;;;;;;;6.55;2.80;;;;;;;;;;6080578;23;20468;-93
2022/11/03 03:50:43;;;;;;;6.57;2.90;;;;;;;;;;6074082;23;20022;-92
2022/11/03 03:53:11;;;;;;;8.57;2.78;;;;;;;;;;6049083;23;20069;-95
2022/11/03 03:55:39;;;;;;;11.23;2.63;;;;;;;;;;6071152;23;20038;-92
2022/11/03 03:58:05;;;;;;;10.65;2.92;;;;;;;;;;6047878;23;20149;-92
2022/11/03 04:00:32;;;;;;;6.30;3.28;;;;;;;;;;6070933;23;20029;-95
2022/11/03 04:02:58;;;;;;;5.82;2.85;;;;;;;;;;6071459;23;20026;-90
2022/11/03 04:05:24;;;;;;;6.85;3.00;;;;;;;;;;6046903;23;20018;-95
2022/11/03 04:07:50;;;;;;;11.32;3.00;;;;;;;;;;6047166;23;20106;-93
2022/11/03 04:10:18;;;;;;;13.02;3.47;;;;;;;;;;6073307;23;20077;-96
2022/11/03 04:23:43;;;;;;;12.15;3.63;;;;;;;;;;6069892;23;20061;-89
2022/11/03 04:26:15;;;;;;;10.02;3.20;;;10.60;99.90;;;;;;6046283;23;20057;-85
2022/11/03 04:28:41;;;;;;;10.50;2.70;;;10.80;99.90;;;;;;6070383;23;20018;-89
2022/11/03 04:31:11;;;;;;;8.77;3.45;;;;;;;;;;6046101;23;20019;-88
2022/11/03 04:33:38;;;;;;;10.30;3.28;;;;;;;;;;6046678;23;20018;-89
2022/11/03 04:36:09;;;;;;;10.60;3.20;;;10.80;99.90;;;;;;6046328;23;20022;-89
2022/11/03 04:38:36;;;;;;;10.60;3.10;;;;;;;;;;6069977;23;20061;-89
2022/11/03 04:41:06;;;;;;;14.35;3.72;;;;;;;;;;6046017;23;20057;-90
2022/11/03 04:43:33;;;;;;;11.40;2.85;;;;;;;;;;6045958;23;20023;-92
2022/11/03 04:46:00;;;;;;;9.93;3.65;;;;;;;;;;6072986;23;20030;-89
2022/11/03 04:48:27;;;;;;;8.40;2.75;;;10.80;99.90;;;;;;6046355;23;20050;-86
2022/11/03 04:50:54;;;;;;;6.53;2.60;;;;;;;;;;6070211;23;20018;-86
2022/11/03 04:53:21;;;;;;;10.38;2.35;;;10.80;99.90;;;;;;6069865;23;20023;-89
2022/11/03 04:55:50;;;;;;;12.27;2.92;;;10.80;99.90;;;;;;6070322;23;20014;-83
2022/11/03 04:58:16;;;;;;;14.50;3.70;;;;;;;;;;6046544;23;20014;-87
2022/11/03 05:00:42;;;;;;;12.95;2.65;;;;;;;;;;6070347;23;20486;-85
2022/11/03 05:03:14;;;;;;;10.68;3.83;;;10.60;99.90;;;;;;6070367;23;20026;-85
2022/11/03 05:05:40;;;;;;;6.38;2.55;;;;;;;;;;6070049;23;20025;-87
2022/11/03 05:08:08;;;;;;;5.25;2.70;;;;;;;;;;6069977;23;20015;-90
2022/11/03 05:10:34;;;;;;;12.95;3.85;;;;;;;;;;6070986;23;20022;-83
2022/11/03 05:13:00;;;;;;;6.60;2.95;;;;;;;;;;6076897;23;20018;-82
2022/11/03 05:15:30;;;;;;;12.65;3.08;;;10.80;99.90;;;;;;6056481;23;20022;-83
2022/11/03 05:17:57;;;;;;;6.63;2.88;;;10.70;99.90;;;;;;6078096;23;20037;-82
2022/11/03 05:20:26;;;;;;;11.43;3.20;;;;;;;;;;6079047;23;20362;-82
2022/11/03 05:22:52;;;;;;;6.82;2.50;;;;;;;;;;6049740;23;20022;-92
2022/11/03 05:25:31;;;;;;;9.90;3.22;;;;;;;;;;6074263;23;20022;-83
2022/11/03 05:27:57;;;;;;;6.00;2.08;;;;;;;;;;6073497;23;20020;-86
2022/11/03 05:30:24;;;;;;;7.75;2.35;;;;;;;;;;6073401;23;20015;-83
2022/11/03 05:32:50;;;;;;;7.95;2.78;;;;;;;;;;6049378;23;20060;-84
2022/11/03 05:35:20;;;;;;;14.82;3.50;;;;;;;;;;6073140;23;20064;-85
2022/11/03 05:37:46;;;;;;;11.70;2.70;;;;;;;;;;6073396;23;20046;-82
2022/11/03 05:40:16;;;;;;;11.00;2.70;;;;;;;;;;6049034;23;20022;-82
2022/11/03 05:42:44;;;;;;;13.10;3.38;;;;;;;;;;6074034;23;20069;-84
2022/11/03 05:45:19;;;;;;;6.82;2.78;;;;;;;;;;6075871;23;20061;-85
2022/11/03 05:47:45;;;;;;;12.80;2.88;;;;;;;;;;6075988;23;20019;-86
2022/11/03 05:50:20;;;;;;;7.35;2.88;;;10.90;99.90;;;;;;6076206;23;20101;-86
2022/11/03 05:52:47;;;;;;;11.95;3.13;;;10.70;99.90;;;;;;6051248;23;20022;-87
2022/11/03 05:55:34;;;;;;;8.40;2.78;;;10.80;99.90;;;;;;6076320;23;20018;-87
2022/11/03 05:58:04;;;;;;;9.13;3.00;;;;;;;;;;6076306;23;20019;-85
2022/11/03 06:00:32;;;;;;;9.05;2.63;;;;;;;;;;6052310;23;20053;-87
2022/11/03 06:02:58;;;;;;;16.77;4.63;;;;;;;;;;6076853;23;20018;-87
2022/11/03 06:05:25;;;;;;;7.03;3.08;;;;;;;;;;6075823;23;20443;-88
2022/11/03 06:07:55;;;;;;;11.05;2.90;;;;;;;;;;6052478;23;20053;-85
2022/11/03 06:10:25;;;;;;;9.77;3.15;;;;;;;;;;6075270;23;20030;-86
2022/11/03 06:12:53;;;;;;;8.23;2.70;;;;;;;;;;6076959;23;20463;-86
2022/11/03 06:15:24;;;;;;;10.55;2.75;;;;;;;;;;6077915;23;20022;-87
2022/11/03 06:17:50;;;;;;;11.30;3.30;;;;;;;;;;6053271;23;20047;-84
2022/11/03 06:20:20;;;;;;;11.73;4.00;;;;;;;;;;6077744;23;20022;-85
2022/11/03 06:22:51;;;;;;;7.00;3.28;;;10.70;99.90;;;;;;6102687;23;20046;-87
2022/11/03 06:25:20;;;;;;;11.15;2.65;;;;;;;;;;6077044;23;20022;-86
2022/11/03 06:27:49;;;;;;;12.65;2.92;;;;;;;;;;6052558;23;20478;-85
2022/11/03 06:30:26;;;;;;;9.50;2.78;;;;;;;;;;6076842;23;20022;-86
2022/11/03 06:32:54;;;;;;;10.82;3.28;;;10.60;99.90;;;;;;6051055;23;20046;-87
2022/11/03 06:35:20;;;;;;;9.65;2.75;;;;;;;;;;6074382;23;20452;-87
2022/11/03 06:37:47;;;;;;;5.70;3.00;;;;;;;;;;6075101;23;20021;-88
2022/11/03 06:40:29;;;;;;;6.78;3.38;;;;;;;;;;6050909;23;20015;-88
2022/11/03 06:42:57;;;;;;;9.98;2.72;;;;;;;;;;6075300;23;20018;-86
2022/11/03 06:45:25;;;;;;;7.10;2.83;;;;;;;;;;6073581;23;20023;-88
2022/11/03 06:47:53;;;;;;;17.67;2.95;;;;;;;;;;6074196;23;20054;-85
2022/11/03 06:50:25;;;;;;;5.28;2.47;;;;;;;;;;6072536;23;20077;-87
2022/11/03 06:52:51;;;;;;;6.22;2.60;;;;;;;;;;6073009;23;20388;-87
2022/11/03 06:55:20;;;;;;;7.13;2.30;;;;;;;;;;6073507;23;20014;-88
2022/11/03 06:57:47;;;;;;;4.55;2.47;;;10.70;99.90;;;;;;6073306;23;20066;-86
2022/11/03 07:00:22;;;;;;;5.93;2.75;;;10.70;99.90;;;;;;6073084;23;20015;-85
2022/11/03 07:02:57;;;;;;;15.80;3.60;;;10.70;99.90;;;;;;6072826;23;20094;-83
2022/11/03 07:05:24;;;;;;;7.28;2.55;;;;;;;;;;6073057;23;20022;-84
2022/11/03 07:07:58;;;;;;;6.88;2.72;;;;;;;;;;6072035;23;20020;-86
2022/11/03 07:10:25;;;;;;;;;;;10.80;99.90;;;;;;6048886;23;20056;-83
2022/11/03 07:12:52;;;;;;;5.45;2.75;;;;;;;;;;6048178;23;19951;-85
2022/11/03 07:15:32;;;;;;;9.57;2.30;;;10.80;99.90;;;;;;6072377;23;20019;-84
2022/11/03 07:17:59;;;;;;;12.43;2.97;;;;;;;;;;6072374;23;20097;-83
2022/11/03 07:20:25;;;;;;;6.53;2.80;;;;;;;;;;6048186;23;20018;-84
2022/11/03 07:22:52;;;;;;;9.23;2.95;;;10.90;99.90;;;;;;6071955;23;20018;-84
2022/11/03 07:25:20;;;;;;;8.85;3.00;;;10.70;99.90;;;;;;6071998;23;20019;-84
2022/11/03 07:27:56;;;;;;;6.07;2.83;;;;;;;;;;6072334;23;20018;-83
2022/11/03 07:30:35;;;;;;;8.68;3.25;;;;;;;;;;6072281;23;20022;-84
2022/11/03 07:33:11;;;;;;;8.18;2.97;;;10.90;99.90;;;;;;6072210;23;20022;-83
2022/11/03 07:35:41;;;;;;;6.53;3.08;;;;;;;;;;6071824;23;20337;-83
2022/11/03 07:38:13;;;;;;;7.60;2.67;;;11.00;99.90;;;;;;6048210;23;20014;-83
2022/11/03 07:40:39;;;;;;;7.50;3.00;;;;;;;;;;6071951;23;20062;-84
2022/11/03 07:43:34;;;;;;;10.80;3.28;;;11.00;99.90;;;;;;6047991;23;20015;-83
2022/11/03 07:46:02;;;;;;;11.57;2.90;;;11.10;99.90;;;;;;6061166;23;20034;-84
2022/11/03 07:48:32;;;;;;;7.55;3.13;;;;;;;;;;6048019;23;20018;-87
2022/11/03 07:51:20;;;;;;;9.77;4.50;;;11.10;99.90;;;;;;6048218;23;20019;-88
2022/11/03 07:53:49;;;;;;;10.02;2.67;;;11.20;99.90;;;;;;6072213;23;20037;-84
2022/11/03 07:56:22;;;;;;;7.65;3.08;;;11.20;99.90;;;;;;6072506;23;20021;-85
2022/11/03 07:58:57;;;;;;;11.07;3.13;;;;;;;;;;6071894;23;20017;-87
2022/11/03 08:01:35;;;;;;;11.65;3.45;;;;;;;;;;6072203;23;20022;-86
2022/11/03 08:04:03;;;;;;;11.07;2.72;;;;;;;;;;6072030;23;20014;-87
2022/11/03 08:06:29;;;;;;;10.02;2.83;;;;;;;;;;6071678;23;20026;-88
2022/11/03 08:08:55;;;;;;;9.15;3.33;;;;;;;;;;6047892;23;20018;-84
2022/11/03 08:11:22;;;;;;;8.38;2.80;;;;;;;;;;6071785;23;20026;-88
2022/11/03 08:13:49;;;;;;;9.30;2.90;;;;;;;;;;6071703;23;20355;-83
2022/11/03 08:16:15;;;;;;;12.25;3.25;;;;;;;;;;6048288;23;20029;-84
2022/11/03 08:18:41;;;;;;;10.02;2.55;;;;;;;;;;6071669;23;20014;-84
2022/11/03 08:21:07;;;;;;;7.25;2.95;;;;;;;;;;6047885;23;20018;-84
2022/11/03 08:23:33;;;;;;;8.18;2.67;;;;;;;;;;6071992;23;20443;-83
2022/11/03 08:25:59;;;;;;;4.18;2.67;;;;;;;;;;6071611;23;20026;-83
2022/11/03 08:28:25;;;;;;;8.63;3.22;;;;;;;;;;6047795;23;20023;-83
2022/11/03 08:30:51;;;;;;;9.07;2.88;;;;;;;;;;6097000;23;20440;-83
2022/11/03 08:33:18;;;;;;;8.93;2.78;;;11.70;99.90;;;;;;6047801;23;20026;-83
2022/11/03 08:35:44;;;;;;;7.68;3.17;;;;;;;;;;6047803;23;20076;-85
2022/11/03 08:38:10;;;;;;;9.00;2.90;;;;;;;;;;6071581;23;20105;-85
2022/11/03 08:40:36;;;;;;;9.88;3.67;;;;;;;;;;6047754;23;20050;-84
2022/11/03 08:43:02;;;;;;;7.68;2.95;;;;;;;;;;6071611;23;20025;-84
2022/11/03 08:45:29;;;;;;;9.70;3.03;;;;;;;;;;6047594;23;20018;-84
2022/11/03 08:47:55;;;;;;;6.70;2.80;;;;;;;;;;6071869;23;20018;-83
2022/11/03 08:50:22;;;;;;;14.82;3.13;;;;;;;;;;6073632;23;20022;-84
2022/11/03 08:52:48;;;;;;;4.82;2.80;;;;;;;;;;6050272;23;20014;-87
2022/11/03 08:55:14;;;;;;;12.05;3.25;;;;;;;;;;6075630;23;20101;-92
2022/11/03 08:57:40;;;;;;;8.82;2.92;;;;;;;;;;6074691;23;20069;-87
2022/11/03 09:00:07;;;;;;;7.72;2.63;;;;;;;;;;6050696;23;20085;-86
2022/11/03 09:02:33;;;;;;;9.27;2.50;;;;;;;;;;6050880;23;20080;-86
2022/11/03 09:04:59;;;;;;;10.50;2.72;;;;;;;;;;6076053;23;20312;-87
2022/11/03 09:07:25;;;;;;;9.48;2.90;;;;;;;;;;6051399;23;20037;-92
2022/11/03 09:09:51;;;;;;;9.38;3.03;;;;;;;;;;6075216;23;20475;-89
2022/11/03 09:12:17;;;;;;;10.68;2.97;;;;;;;;;;6075919;23;20018;-94
2022/11/03 09:14:43;;;;;;;8.00;3.30;;;;;;;;;;6079024;23;20071;-93
2022/11/03 09:17:09;;;;;;;6.63;3.03;;;;;;;;;;6077551;23;20027;-95
2022/11/03 09:19:35;;;;;;;11.02;2.83;;;;;;;;;;6076699;23;20019;-91
2022/11/03 09:22:02;;;;;;;8.43;2.58;;;;;;;;;;6079522;23;20018;-93
2022/11/03 09:24:29;;;;;;;8.65;2.50;;;;;;;;;;6079817;23;20474;-93
2022/11/03 09:26:55;;;;;;;6.78;2.67;;;;;;;;;;6080461;23;20019;-92
2022/11/03 09:29:21;;;;;;;5.80;2.63;;;;;;;;;;6073680;23;20506;-86
2022/11/03 09:31:47;;;;;;;10.52;3.15;;;;;;;;;;6073843;23;20440;-88
2022/11/03 09:34:14;;;;;;;13.15;3.75;;;;;;;;;;6073888;23;20050;-87
2022/11/03 09:36:40;;;;;;;7.93;3.92;;;;;;;;;;6073686;23;20526;-86
2022/11/03 09:39:06;;;;;;;8.90;3.92;;;;;;;;;;6073683;23;20512;-88
2022/11/03 09:41:32;;;;;;;11.40;3.15;;;;;;;;;;6050217;23;20025;-88
2022/11/03 09:43:59;;;;;;;13.30;3.42;;;;;;;;;;6049580;23;20103;-84
2022/11/03 09:46:26;;;;;;;9.75;3.08;;;;;;;;;;6073217;23;20452;-88
2022/11/03 09:48:53;;;;;;;5.32;2.47;;;12.70;99.90;;;;;;6073303;23;20104;-85
2022/11/03 09:51:20;;;;;;;6.03;2.95;;;12.90;99.90;;;;;;6049632;23;20026;-87
2022/11/03 09:53:47;;;;;;;8.18;2.70;;;;;;;;;;6049544;23;20466;-86
2022/11/03 09:56:13;;;;;;;7.47;2.83;;;;;;;;;;6073248;23;20519;-86
2022/11/03 09:58:39;;;;;;;8.60;3.22;;;12.90;99.90;;;;;;6073018;23;20405;-86
2022/11/03 10:01:05;;;;;;;11.38;3.00;;;;;;;;;;6073041;23;20352;-87
2022/11/03 10:03:32;;;;;;;10.30;3.08;;;;;;;;;;6048488;23;20015;-87
2022/11/03 10:05:58;;;;;;;11.88;3.38;;;;;;;;;;6073153;23;20018;-88
2022/11/03 10:08:25;;;;;;;12.85;3.13;;;;;;;;;;6048900;23;20380;-87
2022/11/03 10:10:52;;;;;;;9.55;2.50;;;;;;;;;;6052719;23;20014;-87
2022/11/03 10:13:32;;;;;;;14.82;3.45;;;13.30;99.90;;;;;;6072742;23;20463;-86
2022/11/03 10:16:00;;;;;;;8.13;2.70;;;13.10;99.90;;;;;;6081913;23;20049;-91
2022/11/03 10:18:26;;;;;;;6.20;2.70;;;13.40;99.90;;;;;;6077879;23;20084;-94
2022/11/03 10:20:52;;;;;;;4.57;2.60;;;;;;;;;;6079796;23;20025;-94
2022/11/03 10:23:18;;;;;;;10.27;2.60;;;;;;;;;;6052268;23;20019;-93
2022/11/03 10:25:45;;;;;;;6.80;2.60;;;;;;;;;;6075497;23;20019;-95
2022/11/03 10:28:14;;;;;;;9.10;2.83;;;;;;;;;;6075643;23;20025;-96
2022/11/03 10:30:56;;;;;;;7.57;2.50;;;;;;;;;;6074502;23;20018;-96
2022/11/03 10:33:27;;;;;;;9.93;3.17;;;;;;;;;;6075224;23;20022;-96
2022/11/03 10:35:54;;;;;;;10.25;2.97;;;;;;;;;;6075215;23;20010;-94
2022/11/03 10:38:26;;;;;;;3.80;2.20;;;;;;;;;;6073941;23;20034;-88
2022/11/03 10:40:52;;;;;;;4.70;2.47;;;;;;;;;;6074981;23;20428;-93
2022/11/03 10:43:18;;;;;;;9.85;2.55;;;;;;;;;;6074584;23;20029;-89
2022/11/03 10:45:44;;;;;;;8.75;2.80;;;;;;;;;;6073067;23;20034;-93
2022/11/03 10:48:11;;;;;;;9.77;3.63;;;;;;;;;;6049998;23;20029;-95
2022/11/03 10:50:41;;;;;;;10.68;3.03;;;;;;;;;;6050852;23;20022;-92
2022/11/03 10:53:19;;;;;;;8.73;3.25;;;13.80;99.90;;;;;;6050152;23;20014;-92
2022/11/03 10:55:45;;;;;;;7.93;3.22;;;;;;;;;;6073552;23;20019;-90
2022/11/03 10:58:11;;;;;;;12.25;2.70;;;;;;;;;;6048617;23;20054;-85
2022/11/03 11:00:40;;;;;;;8.80;3.30;;;13.90;99.90;;;;;;6049393;23;20014;-86
2022/11/03 11:03:06;;;;;;;11.02;2.78;;;;;;;;;;6098310;23;20138;-86
2022/11/03 11:05:32;;;;;;;10.55;2.90;;;;;;;;;;6071963;23;20026;-86
2022/11/03 11:07:59;;;;;;;10.25;2.80;;;;;;;;;;6072582;23;20020;-85
2022/11/03 11:10:26;;;;;;;13.13;2.75;;;;;;;;;;6048341;23;20014;-85
2022/11/03 11:13:17;;;;;;;16.80;2.97;;;14.10;99.90;;;;;;6072256;23;20014;-86
2022/11/03 11:15:43;;;;;;;8.90;2.80;;;;;;;;;;6072142;23;20018;-85
2022/11/03 11:18:10;;;;;;;6.07;2.40;;;14.30;99.90;;;;;;6072538;23;20054;-84
2022/11/03 11:20:40;;;;;;;8.38;2.80;;;14.30;99.90;;;;;;6048624;23;20014;-85
2022/11/03 11:23:25;;;;;;;8.55;2.83;;;;;;;;;;6072229;23;20014;-86
2022/11/03 11:26:26;;;;;;;8.82;2.72;;;14.60;99.90;;;;;;6048308;23;20022;-84
2022/11/03 11:29:10;;;;;;;7.45;2.78;;;;;;;;;;5957837;23;20113;-88
2022/11/03 11:31:39;;;;;;;9.73;2.33;;;14.50;99.90;;;;;;5935207;24;20020;-88
2022/11/03 11:34:08;;;;;;;4.57;2.58;;;;;;;;;;5958131;24;20077;-87
2022/11/03 11:36:55;;;;;;;9.25;2.67;;;14.80;99.90;;;;;;5957989;24;20026;-89
2022/11/03 11:39:24;;;;;;;11.25;2.47;;;;;;;;;;5979144;24;20016;-84
2022/11/03 11:42:08;;;;;;;6.60;2.58;;;15.00;99.90;;;;;;5934317;24;20065;-85
2022/11/03 11:44:44;;;;;;;;;;;14.80;99.90;;;;;;5935480;24;20020;-87
2022/11/03 11:47:31;;;;;;;7.63;2.60;;;14.80;99.90;;;;;;5957983;24;19918;-86
2022/11/03 11:50:06;;;;;;;6.20;2.30;;;14.90;99.90;;;;;;5957760;24;20041;-83
2022/11/03 11:52:36;;;;;;;7.53;2.60;;;15.00;99.90;;;;;;5957862;24;20024;-83
2022/11/03 11:55:03;;;;;;;4.07;2.08;;;15.00;99.90;;;;;;5957624;24;20024;-86
2022/11/03 11:57:33;;;;;;;8.90;2.65;;;15.10;99.90;;;;;;5957729;24;20339;-86
2022/11/03 11:59:59;;;;;;;6.15;2.13;;;;;;;;;;5957937;24;20095;-85
2022/11/03 12:02:28;;;;;;;11.88;2.25;;;14.90;99.90;;;;;;5957777;24;20027;-83
2022/11/03 12:05:00;;;;;;;7.00;2.35;;;14.80;99.90;;;;;;5988926;23;20048;-89
2022/11/03 12:07:33;;;;;;;7.43;2.70;;;15.10;99.90;;;;;;6072378;23;20025;-94
2022/11/03 12:10:09;;;;;;;8.13;4.28;;;;;;;;;;6048794;23;20018;-91
2022/11/03 12:12:35;;;;;;;7.55;2.58;;;;;;;;;;6072794;23;20022;-91
2022/11/03 12:15:01;;;;;;;7.50;2.10;;;;;;;;;;6048947;23;20069;-87
2022/11/03 12:17:27;;;;;;;7.40;2.70;;;;;;;;;;6049025;23;20118;-91
2022/11/03 12:19:53;;;;;;;9.07;1.73;;;14.90;99.90;;;;;;6072764;23;20019;-93
2022/11/03 12:22:22;;;;;;;6.75;2.17;;;;;;;;;;6072485;23;20048;-85
2022/11/03 12:24:51;;;;;;;9.57;2.67;;;;;;;;;;6048939;23;20018;-86
2022/11/03 12:27:17;;;;;;;8.10;2.47;;;;;;;;;;6073948;23;20097;-93
2022/11/03 12:29:43;;;;;;;6.03;3.10;;;;;;;;;;6075845;23;20474;-94
2022/11/03 12:32:09;;;;;;;8.73;2.20;;;;;;;;;;6051826;23;20027;-92
2022/11/03 12:34:35;;;;;;;4.75;2.33;;;;;;;;;;6052542;23;20030;-87
2022/11/03 12:37:03;;;;;;;5.25;2.50;;;;;;;;;;6051688;23;20021;-91
2022/11/03 12:39:29;;;;;;;8.75;3.05;;;;;;;;;;6051038;23;20023;-94
2022/11/03 12:41:55;;;;;;;3.80;2.50;;;;;;;;;;6074782;23;20026;-93
2022/11/03 12:44:21;;;;;;;7.25;2.60;;;;;;;;;;6075467;23;20480;-92
2022/11/03 12:46:47;;;;;;;6.57;2.17;;;;;;;;;;6050914;23;20030;-93
2022/11/03 12:49:13;;;;;;;5.07;2.33;;;;;;;;;;6074402;23;20076;-86
2022/11/03 12:51:39;;;;;;;4.82;1.75;;;;;;;;;;6073852;23;20461;-84
2022/11/03 12:54:05;;;;;;;6.63;2.25;;;;;;;;;;6049756;23;20456;-86
2022/11/03 12:56:31;;;;;;;6.68;2.47;;;;;;;;;;6074435;23;20029;-87
2022/11/03 12:58:57;;;;;;;8.38;2.38;;;;;;;;;;6074347;23;20069;-90
2022/11/03 13:01:24;;;;;;;7.03;2.15;;;;;;;;;;6074311;23;20064;-92
2022/11/03 13:03:50;;;;;;;4.70;2.00;;;;;;;;;;6051349;23;20018;-94
2022/11/03 13:06:16;;;;;;;7.00;2.20;;;;;;;;;;6074976;23;20014;-87
2022/11/03 13:08:42;;;;;;;11.23;2.33;;;;;;;;;;6050806;23;20482;-89
2022/11/03 13:12:29;;;;;;;4.53;2.10;;;;;;;;;;6074530;23;20021;-87
2022/11/03 13:13:54;;;;;;;7.25;2.35;;;;;;;;;;6075003;23;20086;-94
2022/11/03 13:16:20;;;;;;;5.35;2.28;;;;;;;;;;6050392;23;20019;-92
2022/11/03 13:18:46;;;;;;;8.55;2.17;;;;;;;;;;6074894;23;20072;-94
2022/11/03 13:21:12;;;;;;;7.50;2.30;;;;;;;;;;6073118;23;20014;-90
2022/11/03 13:23:38;;;;;;;3.88;2.28;;;;;;;;;;6073245;23;20084;-89
2022/11/03 13:26:04;;;;;;;4.32;2.05;;;;;;;;;;6073082;23;20388;-84
2022/11/03 13:28:30;;;;;;;5.40;2.10;;;;;;;;;;6073184;23;20081;-83
2022/11/03 13:30:56;;;;;;;9.27;2.60;;;;;;;;;;6049334;23;20022;-88
2022/11/03 13:33:22;;;;;;;4.05;2.22;;;;;;;;;;6073090;23;20025;-84
2022/11/03 13:35:48;;;;;;;9.85;2.22;;;;;;;;;;6073353;23;20030;-84
2022/11/03 13:38:14;;;;;;;8.30;3.03;;;;;;;;;;6049232;23;20019;-84
2022/11/03 13:40:40;;;;;;;4.60;2.63;;;;;;;;;;6049415;23;20018;-83
2022/11/03 13:43:06;;;;;;;4.75;2.40;;;;;;;;;;6073374;23;20348;-89
2022/11/03 13:45:33;;;;;;;7.80;1.80;;;;;;;;;;6049162;23;20022;-86
2022/11/03 13:47:59;;;;;;;4.68;2.30;;;;;;;;;;6049954;23;20061;-84
2022/11/03 13:50:25;;;;;;;3.45;2.25;;;;;;;;;;6073765;23;20390;-85
2022/11/03 13:52:51;;;;;;;2.80;1.83;;;;;;;;;;6072734;23;20011;-83
2022/11/03 13:55:17;;;;;;;6.05;2.80;;;;;;;;;;6050395;23;20022;-83
2022/11/03 13:57:43;;;;;;;8.77;2.80;;;;;;;;;;6049328;23;20530;-88
2022/11/03 14:00:12;;;;;;;6.35;2.55;;;15.10;99.90;;;;;;6049601;23;20246;-87
2022/11/03 14:02:39;;;;;;;7.68;2.33;;;;;;;;;;6049264;23;20089;-84
2022/11/03 14:05:06;;;;;;;8.85;2.40;;;;;;;;;;6050406;23;20050;-91
2022/11/03 14:07:32;;;;;;;5.68;2.30;;;;;;;;;;6050137;23;20025;-89
2022/11/03 14:09:58;;;;;;;7.85;2.10;;;14.90;99.90;;;;;;6073686;23;20014;-85
2022/11/03 14:12:30;;;;;;;10.38;4.55;;;;;;;;;;6049547;23;20018;-88
2022/11/03 14:15:02;;;;;;;7.97;2.00;;;15.10;99.90;;;;;;6049468;23;20316;-85
2022/11/03 14:17:29;;;;;;;5.00;2.53;;;;;;;;;;6050160;23;20019;-83
2022/11/03 14:19:55;;;;;;;8.10;2.10;;;;;;;;;;6074255;23;20010;-85
2022/11/03 14:22:22;;;;;;;4.18;2.33;;;15.00;99.90;;;;;;6049272;23;20093;-90
2022/11/03 14:24:48;;;;;;;9.23;2.65;;;;;;;;;;6073343;23;20019;-86
2022/11/03 14:27:14;;;;;;;6.07;2.10;;;;;;;;;;6073048;23;20018;-86
2022/11/03 14:29:42;;;;;;;6.68;2.17;;;14.60;99.90;;;;;;6049027;23;20037;-87
2022/11/03 14:32:08;;;;;;;6.63;1.98;;;;;;;;;;6049364;23;20025;-89
2022/11/03 14:34:35;;;;;;;6.80;2.22;;;;;;;;;;6049267;23;20348;-82